sensor_id;sensor_type;location;lat;lon;timestamp;temperature;humidity
4324;DHT22;2175;51.018;6.994;2022-08-19T00:02:23;19.60;99.90
4324;DHT22;2175;51.018;6.994;2022-08-19T00:04:49;19.50;99.90
4324;DHT22;2175;51.018;6.994;2022-08-19T00:07:18;19.50;99.90
4324;DHT22;2175;51.018;6.994;2022-08-19T00:09:44;19.50;99.90
4324;DHT22;2175;51.018;6.994;2022-08-19T00:12:11;19.40;99.90
4324;DHT22;2175;51.018;6.994;2022-08-19T00:14:37;19.40;99.90
4324;DHT22;2175;51.018;6.994;2022-08-19T00:17:04;19.40;99.90
4324;DHT22;2175;51.018;6.994;2022-08-19T00:19:30;19.40;99.90
4324;DHT22;2175;51.018;6.994;2022-08-19T00:21:56;19.30;99.90
4324;DHT22;2175;51.018;6.994;2022-08-19T00:24:22;19.30;99.90
4324;DHT22;2175;51.018;6.994;2022-08-19T00:26:48;19.30;99.90
4324;DHT22;2175;51.018;6.994;2022-08-19T00:29:17;19.30;99.90
4324;DHT22;2175;51.018;6.994;2022-08-19T00:31:44;19.20;99.90
4324;DHT22;2175;51.018;6.994;2022-08-19T00:34:11;19.20;99.90
4324;DHT22;2175;51.018;6.994;2022-08-19T00:36:37;19.20;99.90
4324;DHT22;2175;51.018;6.994;2022-08-19T00:39:04;19.20;99.90
4324;DHT22;2175;51.018;6.994;2022-08-19T00:41:30;19.10;99.90
4324;DHT22;2175;51.018;6.994;2022-08-19T00:44:03;19.10;99.90
4324;DHT22;2175;51.018;6.994;2022-08-19T00:46:30;19.10;99.90
4324;DHT22;2175;51.018;6.994;2022-08-19T00:48:56;19.10;99.90
4324;DHT22;2175;51.018;6.994;2022-08-19T00:51:25;19.10;99.90
4324;DHT22;2175;51.018;6.994;2022-08-19T00:53:53;19.00;99.90
4324;DHT22;2175;51.018;6.994;2022-08-19T00:56:19;19.00;99.90
4324;DHT22;2175;51.018;6.994;2022-08-19T00:58:45;18.90;99.90
4324;DHT22;2175;51.018;6.994;2022-08-19T01:01:10;18.80;99.90
4324;DHT22;2175;51.018;6.994;2022-08-19T01:03:36;18.80;99.90
4324;DHT22;2175;51.018;6.994;2022-08-19T01:06:02;18.80;99.90
4324;DHT22;2175;51.018;6.994;2022-08-19T01:08:28;18.70;99.90
4324;DHT22;2175;51.018;6.994;2022-08-19T01:10:56;18.70;99.90
4324;DHT22;2175;51.018;6.994;2022-08-19T01:13:27;18.70;99.90
4324;DHT22;2175;51.018;6.994;2022-08-19T01:15:59;18.80;99.90
4324;DHT22;2175;51.018;6.994;2022-08-19T01:18:26;18.80;99.90
4324;DHT22;2175;51.018;6.994;2022-08-19T01:20:55;18.80;99.90
4324;DHT22;2175;51.018;6.994;2022-08-19T01:23:23;18.80;99.90
4324;DHT22;2175;51.018;6.994;2022-08-19T01:26:10;18.80;99.90
4324;DHT22;2175;51.018;6.994;2022-08-19T01:28:37;18.80;99.90
4324;DHT22;2175;51.018;6.994;2022-08-19T01:31:04;18.70;99.90
4324;DHT22;2175;51.018;6.994;2022-08-19T01:33:30;18.70;99.90
4324;DHT22;2175;51.018;6.994;2022-08-19T01:36:22;18.70;99.90
4324;DHT22;2175;51.018;6.994;2022-08-19T01:38:48;18.60;99.90
4324;DHT22;2175;51.018;6.994;2022-08-19T01:41:15;18.60;99.90
4324;DHT22;2175;51.018;6.994;2022-08-19T01:43:42;18.70;99.90
4324;DHT22;2175;51.018;6.994;2022-08-19T01:46:08;18.60;99.90
4324;DHT22;2175;51.018;6.994;2022-08-19T01:48:36;18.60;99.90
4324;DHT22;2175;51.018;6.994;2022-08-19T01:51:02;18.60;99.90
4324;DHT22;2175;51.018;6.994;2022-08-19T01:53:28;18.60;99.90
4324;DHT22;2175;51.018;6.994;2022-08-19T01:55:54;18.60;99.90
4324;DHT22;2175;51.018;6.994;2022-08-19T01:58:24;18.50;99.90
4324;DHT22;2175;51.018;6.994;2022-08-19T02:00:50;18.50;99.90
4324;DHT22;2175;51.018;6.994;2022-08-19T02:03:16;18.50;99.90
4324;DHT22;2175;51.018;6.994;2022-08-19T02:05:42;18.50;99.90
4324;DHT22;2175;51.018;6.994;2022-08-19T02:08:10;18.40;99.90
4324;DHT22;2175;51.018;6.994;2022-08-19T02:10:39;18.30;99.90
4324;DHT22;2175;51.018;6.994;2022-08-19T02:13:05;18.10;99.90
4324;DHT22;2175;51.018;6.994;2022-08-19T02:15:31;18.10;99.90
4324;DHT22;2175;51.018;6.994;2022-08-19T02:17:57;18.20;99.90
4324;DHT22;2175;51.018;6.994;2022-08-19T02:20:23;18.20;99.90
4324;DHT22;2175;51.018;6.994;2022-08-19T02:22:49;18.20;99.90
4324;DHT22;2175;51.018;6.994;2022-08-19T02:25:15;18.20;99.90
4324;DHT22;2175;51.018;6.994;2022-08-19T02:27:41;18.30;99.90
4324;DHT22;2175;51.018;6.994;2022-08-19T02:30:11;18.20;99.90
4324;DHT22;2175;51.018;6.994;2022-08-19T02:32:37;18.20;99.90
4324;DHT22;2175;51.018;6.994;2022-08-19T02:35:03;18.20;99.90
4324;DHT22;2175;51.018;6.994;2022-08-19T02:37:28;18.20;99.90
4324;DHT22;2175;51.018;6.994;2022-08-19T02:40:13;18.20;99.90
4324;DHT22;2175;51.018;6.994;2022-08-19T02:42:39;18.10;99.90
4324;DHT22;2175;51.018;6.994;2022-08-19T02:45:06;18.10;99.90
4324;DHT22;2175;51.018;6.994;2022-08-19T02:47:33;18.20;99.90
4324;DHT22;2175;51.018;6.994;2022-08-19T02:50:00;18.10;99.90
4324;DHT22;2175;51.018;6.994;2022-08-19T02:52:26;18.00;99.90
4324;DHT22;2175;51.018;6.994;2022-08-19T02:54:52;18.00;99.90
4324;DHT22;2175;51.018;6.994;2022-08-19T02:57:18;18.00;99.90
4324;DHT22;2175;51.018;6.994;2022-08-19T02:59:43;18.10;99.90
4324;DHT22;2175;51.018;6.994;2022-08-19T03:02:09;18.10;99.90
4324;DHT22;2175;51.018;6.994;2022-08-19T03:04:35;18.10;99.90
4324;DHT22;2175;51.018;6.994;2022-08-19T03:07:00;18.00;99.90
4324;DHT22;2175;51.018;6.994;2022-08-19T03:09:26;18.00;99.90
4324;DHT22;2175;51.018;6.994;2022-08-19T03:11:51;18.00;99.90
4324;DHT22;2175;51.018;6.994;2022-08-19T03:14:17;18.00;99.90
4324;DHT22;2175;51.018;6.994;2022-08-19T03:16:48;18.10;99.90
4324;DHT22;2175;51.018;6.994;2022-08-19T03:19:17;18.00;99.90
4324;DHT22;2175;51.018;6.994;2022-08-19T03:21:44;18.00;99.90
4324;DHT22;2175;51.018;6.994;2022-08-19T03:24:10;18.00;99.90
4324;DHT22;2175;51.018;6.994;2022-08-19T03:26:43;18.00;99.90
4324;DHT22;2175;51.018;6.994;2022-08-19T03:29:09;18.00;99.90
4324;DHT22;2175;51.018;6.994;2022-08-19T03:31:37;17.90;99.90
4324;DHT22;2175;51.018;6.994;2022-08-19T03:34:03;17.90;99.90
4324;DHT22;2175;51.018;6.994;2022-08-19T03:36:29;17.80;99.90
4324;DHT22;2175;51.018;6.994;2022-08-19T03:38:58;17.90;99.90
4324;DHT22;2175;51.018;6.994;2022-08-19T03:41:33;17.90;99.90
4324;DHT22;2175;51.018;6.994;2022-08-19T03:44:02;17.90;99.90
4324;DHT22;2175;51.018;6.994;2022-08-19T03:46:30;17.90;99.90
4324;DHT22;2175;51.018;6.994;2022-08-19T03:48:57;17.80;99.90
4324;DHT22;2175;51.018;6.994;2022-08-19T03:53:50;17.80;99.90
4324;DHT22;2175;51.018;6.994;2022-08-19T03:56:16;17.80;99.90
4324;DHT22;2175;51.018;6.994;2022-08-19T03:58:43;17.80;99.90
4324;DHT22;2175;51.018;6.994;2022-08-19T04:01:15;17.80;99.90
4324;DHT22;2175;51.018;6.994;2022-08-19T04:03:42;17.80;99.90
4324;DHT22;2175;51.018;6.994;2022-08-19T04:06:12;17.80;99.90
4324;DHT22;2175;51.018;6.994;2022-08-19T04:08:40;17.70;99.90
4324;DHT22;2175;51.018;6.994;2022-08-19T04:11:11;17.70;99.90
4324;DHT22;2175;51.018;6.994;2022-08-19T04:13:37;17.70;99.90
4324;DHT22;2175;51.018;6.994;2022-08-19T04:16:04;17.80;99.90
4324;DHT22;2175;51.018;6.994;2022-08-19T04:18:31;17.80;99.90
4324;DHT22;2175;51.018;6.994;2022-08-19T04:20:58;17.90;99.90
4324;DHT22;2175;51.018;6.994;2022-08-19T04:23:24;17.80;99.90
4324;DHT22;2175;51.018;6.994;2022-08-19T04:25:49;17.80;99.90
4324;DHT22;2175;51.018;6.994;2022-08-19T04:28:15;17.80;99.90
4324;DHT22;2175;51.018;6.994;2022-08-19T04:30:44;17.80;99.90
4324;DHT22;2175;51.018;6.994;2022-08-19T04:33:13;17.80;99.90
4324;DHT22;2175;51.018;6.994;2022-08-19T04:35:44;17.80;99.90
4324;DHT22;2175;51.018;6.994;2022-08-19T04:38:11;17.80;99.90
4324;DHT22;2175;51.018;6.994;2022-08-19T04:40:42;17.70;99.90
4324;DHT22;2175;51.018;6.994;2022-08-19T04:43:27;17.80;99.90
4324;DHT22;2175;51.018;6.994;2022-08-19T04:45:53;17.70;99.90
4324;DHT22;2175;51.018;6.994;2022-08-19T04:48:19;17.70;99.90
4324;DHT22;2175;51.018;6.994;2022-08-19T04:50:51;17.70;99.90
4324;DHT22;2175;51.018;6.994;2022-08-19T04:53:33;17.70;99.90
4324;DHT22;2175;51.018;6.994;2022-08-19T04:56:03;17.70;99.90
4324;DHT22;2175;51.018;6.994;2022-08-19T04:58:29;17.80;99.90
4324;DHT22;2175;51.018;6.994;2022-08-19T05:00:55;17.80;99.90
4324;DHT22;2175;51.018;6.994;2022-08-19T05:03:21;17.80;99.90
4324;DHT22;2175;51.018;6.994;2022-08-19T05:05:48;17.80;99.90
4324;DHT22;2175;51.018;6.994;2022-08-19T05:08:16;17.80;99.90
4324;DHT22;2175;51.018;6.994;2022-08-19T05:10:49;17.80;99.90
4324;DHT22;2175;51.018;6.994;2022-08-19T05:13:16;17.90;99.90
4324;DHT22;2175;51.018;6.994;2022-08-19T05:15:42;18.00;99.90
4324;DHT22;2175;51.018;6.994;2022-08-19T05:18:08;18.00;99.90
4324;DHT22;2175;51.018;6.994;2022-08-19T05:20:52;17.90;99.90
4324;DHT22;2175;51.018;6.994;2022-08-19T05:23:37;18.00;99.90
4324;DHT22;2175;51.018;6.994;2022-08-19T05:26:03;18.10;99.90
4324;DHT22;2175;51.018;6.994;2022-08-19T05:28:29;18.10;99.90
4324;DHT22;2175;51.018;6.994;2022-08-19T05:30:55;18.10;99.90
4324;DHT22;2175;51.018;6.994;2022-08-19T05:33:21;18.10;99.90
4324;DHT22;2175;51.018;6.994;2022-08-19T05:35:48;18.10;99.90
4324;DHT22;2175;51.018;6.994;2022-08-19T05:38:15;18.10;99.90
4324;DHT22;2175;51.018;6.994;2022-08-19T05:40:41;18.20;99.90
4324;DHT22;2175;51.018;6.994;2022-08-19T05:43:15;18.30;99.90
4324;DHT22;2175;51.018;6.994;2022-08-19T05:45:41;18.40;99.90
4324;DHT22;2175;51.018;6.994;2022-08-19T05:48:09;18.50;99.90
4324;DHT22;2175;51.018;6.994;2022-08-19T05:50:37;18.70;99.90
4324;DHT22;2175;51.018;6.994;2022-08-19T05:53:04;18.90;99.90
4324;DHT22;2175;51.018;6.994;2022-08-19T05:55:29;19.00;99.90
4324;DHT22;2175;51.018;6.994;2022-08-19T05:57:55;19.10;99.90
4324;DHT22;2175;51.018;6.994;2022-08-19T06:00:20;19.20;99.90
4324;DHT22;2175;51.018;6.994;2022-08-19T06:02:46;19.30;99.90
4324;DHT22;2175;51.018;6.994;2022-08-19T06:05:12;19.40;99.90
4324;DHT22;2175;51.018;6.994;2022-08-19T06:07:39;19.40;99.90
4324;DHT22;2175;51.018;6.994;2022-08-19T06:10:07;19.50;99.90
4324;DHT22;2175;51.018;6.994;2022-08-19T06:12:33;19.60;99.90
4324;DHT22;2175;51.018;6.994;2022-08-19T06:15:09;19.60;99.90
4324;DHT22;2175;51.018;6.994;2022-08-19T06:17:35;19.70;99.90
4324;DHT22;2175;51.018;6.994;2022-08-19T06:20:03;19.70;99.90
4324;DHT22;2175;51.018;6.994;2022-08-19T06:22:29;19.80;99.90
4324;DHT22;2175;51.018;6.994;2022-08-19T06:24:55;19.80;99.90
4324;DHT22;2175;51.018;6.994;2022-08-19T06:27:21;19.90;99.90
4324;DHT22;2175;51.018;6.994;2022-08-19T06:29:47;19.90;99.90
4324;DHT22;2175;51.018;6.994;2022-08-19T06:32:15;19.90;99.90
4324;DHT22;2175;51.018;6.994;2022-08-19T06:34:41;20.00;99.90
4324;DHT22;2175;51.018;6.994;2022-08-19T06:37:07;20.10;99.90
4324;DHT22;2175;51.018;6.994;2022-08-19T06:39:37;20.20;99.90
4324;DHT22;2175;51.018;6.994;2022-08-19T06:42:04;20.20;99.90
4324;DHT22;2175;51.018;6.994;2022-08-19T06:44:34;20.20;99.90
4324;DHT22;2175;51.018;6.994;2022-08-19T06:47:04;20.30;99.90
4324;DHT22;2175;51.018;6.994;2022-08-19T06:49:29;20.40;99.90
4324;DHT22;2175;51.018;6.994;2022-08-19T06:51:57;20.40;99.90
4324;DHT22;2175;51.018;6.994;2022-08-19T06:54:24;20.40;99.90
4324;DHT22;2175;51.018;6.994;2022-08-19T06:56:51;20.40;99.90
4324;DHT22;2175;51.018;6.994;2022-08-19T06:59:21;20.50;99.90
4324;DHT22;2175;51.018;6.994;2022-08-19T07:01:54;20.50;99.90
4324;DHT22;2175;51.018;6.994;2022-08-19T07:04:23;20.70;99.90
4324;DHT22;2175;51.018;6.994;2022-08-19T07:06:55;20.70;99.90
4324;DHT22;2175;51.018;6.994;2022-08-19T07:09:22;20.80;99.90
4324;DHT22;2175;51.018;6.994;2022-08-19T07:11:50;20.90;99.90
4324;DHT22;2175;51.018;6.994;2022-08-19T07:14:19;21.10;99.90
4324;DHT22;2175;51.018;6.994;2022-08-19T07:16:46;21.10;99.90
4324;DHT22;2175;51.018;6.994;2022-08-19T07:19:12;21.30;99.90
4324;DHT22;2175;51.018;6.994;2022-08-19T07:21:38;21.40;99.90
4324;DHT22;2175;51.018;6.994;2022-08-19T07:24:04;21.40;99.90
4324;DHT22;2175;51.018;6.994;2022-08-19T07:26:32;21.50;99.90
4324;DHT22;2175;51.018;6.994;2022-08-19T07:28:58;21.40;99.90
4324;DHT22;2175;51.018;6.994;2022-08-19T07:31:26;21.50;99.90
4324;DHT22;2175;51.018;6.994;2022-08-19T07:33:54;21.40;99.90
4324;DHT22;2175;51.018;6.994;2022-08-19T07:36:26;21.30;99.90
4324;DHT22;2175;51.018;6.994;2022-08-19T07:38:56;21.30;99.90
4324;DHT22;2175;51.018;6.994;2022-08-19T07:41:25;21.40;99.90
4324;DHT22;2175;51.018;6.994;2022-08-19T07:43:51;21.50;99.90
4324;DHT22;2175;51.018;6.994;2022-08-19T07:46:17;21.60;99.90
4324;DHT22;2175;51.018;6.994;2022-08-19T07:48:44;21.60;99.90
4324;DHT22;2175;51.018;6.994;2022-08-19T07:51:15;21.70;99.90
4324;DHT22;2175;51.018;6.994;2022-08-19T07:53:41;21.80;99.90
4324;DHT22;2175;51.018;6.994;2022-08-19T07:56:07;21.70;99.90
4324;DHT22;2175;51.018;6.994;2022-08-19T07:58:37;21.80;99.90
4324;DHT22;2175;51.018;6.994;2022-08-19T08:01:06;21.90;99.90
4324;DHT22;2175;51.018;6.994;2022-08-19T08:03:32;22.20;99.90
4324;DHT22;2175;51.018;6.994;2022-08-19T08:06:16;22.50;99.90
4324;DHT22;2175;51.018;6.994;2022-08-19T08:09:01;22.50;99.90
4324;DHT22;2175;51.018;6.994;2022-08-19T08:12:01;22.60;99.90
4324;DHT22;2175;51.018;6.994;2022-08-19T08:14:33;22.70;99.90
4324;DHT22;2175;51.018;6.994;2022-08-19T08:17:00;22.80;99.90
4324;DHT22;2175;51.018;6.994;2022-08-19T08:19:27;22.80;99.90
4324;DHT22;2175;51.018;6.994;2022-08-19T08:21:55;22.90;99.90
4324;DHT22;2175;51.018;6.994;2022-08-19T08:24:21;23.10;99.90
4324;DHT22;2175;51.018;6.994;2022-08-19T08:26:46;23.10;99.90
4324;DHT22;2175;51.018;6.994;2022-08-19T08:29:13;23.10;99.90
4324;DHT22;2175;51.018;6.994;2022-08-19T08:31:41;23.00;99.90
4324;DHT22;2175;51.018;6.994;2022-08-19T08:34:08;22.90;99.90
4324;DHT22;2175;51.018;6.994;2022-08-19T08:36:36;22.70;99.90
4324;DHT22;2175;51.018;6.994;2022-08-19T08:39:08;22.60;99.90
4324;DHT22;2175;51.018;6.994;2022-08-19T08:41:50;22.60;99.90
4324;DHT22;2175;51.018;6.994;2022-08-19T08:44:28;22.60;99.90
4324;DHT22;2175;51.018;6.994;2022-08-19T08:47:03;22.60;99.90
4324;DHT22;2175;51.018;6.994;2022-08-19T08:49:55;22.60;99.90
4324;DHT22;2175;51.018;6.994;2022-08-19T08:52:24;22.80;99.90
4324;DHT22;2175;51.018;6.994;2022-08-19T08:54:54;23.00;99.90
4324;DHT22;2175;51.018;6.994;2022-08-19T09:00:02;23.60;99.90
4324;DHT22;2175;51.018;6.994;2022-08-19T09:02:30;23.80;99.90
4324;DHT22;2175;51.018;6.994;2022-08-19T09:04:56;24.00;99.90
4324;DHT22;2175;51.018;6.994;2022-08-19T09:07:46;23.90;99.90
4324;DHT22;2175;51.018;6.994;2022-08-19T09:10:39;24.40;99.90
4324;DHT22;2175;51.018;6.994;2022-08-19T09:13:30;24.80;99.90
4324;DHT22;2175;51.018;6.994;2022-08-19T09:16:15;25.50;99.90
4324;DHT22;2175;51.018;6.994;2022-08-19T09:18:49;25.50;99.90
4324;DHT22;2175;51.018;6.994;2022-08-19T09:21:18;25.60;99.90
4324;DHT22;2175;51.018;6.994;2022-08-19T09:23:44;25.50;99.90
4324;DHT22;2175;51.018;6.994;2022-08-19T09:26:13;25.60;99.90
4324;DHT22;2175;51.018;6.994;2022-08-19T09:28:40;25.20;99.90
4324;DHT22;2175;51.018;6.994;2022-08-19T09:31:10;25.30;99.90
4324;DHT22;2175;51.018;6.994;2022-08-19T09:33:37;25.30;99.90
4324;DHT22;2175;51.018;6.994;2022-08-19T09:36:07;25.40;99.90
4324;DHT22;2175;51.018;6.994;2022-08-19T09:38:35;25.30;99.90
4324;DHT22;2175;51.018;6.994;2022-08-19T09:41:13;25.40;99.90
4324;DHT22;2175;51.018;6.994;2022-08-19T09:43:40;25.30;99.90
4324;DHT22;2175;51.018;6.994;2022-08-19T09:46:07;25.60;99.90
4324;DHT22;2175;51.018;6.994;2022-08-19T09:48:35;26.00;99.90
4324;DHT22;2175;51.018;6.994;2022-08-19T09:51:06;26.10;99.90
4324;DHT22;2175;51.018;6.994;2022-08-19T09:53:37;26.60;99.90
4324;DHT22;2175;51.018;6.994;2022-08-19T09:56:04;26.90;99.90
4324;DHT22;2175;51.018;6.994;2022-08-19T09:58:31;27.20;99.90
4324;DHT22;2175;51.018;6.994;2022-08-19T10:00:58;27.40;99.90
4324;DHT22;2175;51.018;6.994;2022-08-19T10:03:26;27.60;99.90
4324;DHT22;2175;51.018;6.994;2022-08-19T10:05:52;27.90;99.90
4324;DHT22;2175;51.018;6.994;2022-08-19T10:08:22;28.10;99.90
4324;DHT22;2175;51.018;6.994;2022-08-19T10:10:49;27.90;99.90
4324;DHT22;2175;51.018;6.994;2022-08-19T10:13:17;27.30;99.90
4324;DHT22;2175;51.018;6.994;2022-08-19T10:15:43;27.30;99.90
4324;DHT22;2175;51.018;6.994;2022-08-19T10:18:09;27.40;99.90
4324;DHT22;2175;51.018;6.994;2022-08-19T10:20:35;27.40;99.90
4324;DHT22;2175;51.018;6.994;2022-08-19T10:23:04;27.30;99.90
4324;DHT22;2175;51.018;6.994;2022-08-19T10:25:29;27.50;99.90
4324;DHT22;2175;51.018;6.994;2022-08-19T10:27:57;27.50;99.90
4324;DHT22;2175;51.018;6.994;2022-08-19T10:30:22;27.40;99.90
4324;DHT22;2175;51.018;6.994;2022-08-19T10:32:48;27.40;99.90
4324;DHT22;2175;51.018;6.994;2022-08-19T10:35:14;27.40;99.90
4324;DHT22;2175;51.018;6.994;2022-08-19T10:37:40;27.30;99.90
4324;DHT22;2175;51.018;6.994;2022-08-19T10:40:07;27.30;99.90
4324;DHT22;2175;51.018;6.994;2022-08-19T10:42:34;27.30;99.90
4324;DHT22;2175;51.018;6.994;2022-08-19T10:45:00;27.30;99.90
4324;DHT22;2175;51.018;6.994;2022-08-19T10:47:25;27.30;99.90
4324;DHT22;2175;51.018;6.994;2022-08-19T10:49:51;26.90;99.90
4324;DHT22;2175;51.018;6.994;2022-08-19T10:52:36;27.10;99.90
4324;DHT22;2175;51.018;6.994;2022-08-19T10:55:06;27.20;99.90
4324;DHT22;2175;51.018;6.994;2022-08-19T10:57:51;27.10;99.90
4324;DHT22;2175;51.018;6.994;2022-08-19T11:00:19;26.80;99.90
4324;DHT22;2175;51.018;6.994;2022-08-19T11:02:45;26.70;99.90
4324;DHT22;2175;51.018;6.994;2022-08-19T11:05:11;26.40;99.90
4324;DHT22;2175;51.018;6.994;2022-08-19T11:07:40;26.60;99.90
4324;DHT22;2175;51.018;6.994;2022-08-19T11:10:08;26.70;99.90
4324;DHT22;2175;51.018;6.994;2022-08-19T11:12:33;26.60;99.90
4324;DHT22;2175;51.018;6.994;2022-08-19T11:15:01;26.50;99.90
4324;DHT22;2175;51.018;6.994;2022-08-19T11:17:27;26.30;99.90
4324;DHT22;2175;51.018;6.994;2022-08-19T11:19:52;26.00;99.90
4324;DHT22;2175;51.018;6.994;2022-08-19T11:22:18;26.30;99.90
4324;DHT22;2175;51.018;6.994;2022-08-19T11:24:44;26.50;99.90
4324;DHT22;2175;51.018;6.994;2022-08-19T11:27:10;26.80;99.90
4324;DHT22;2175;51.018;6.994;2022-08-19T11:29:38;27.20;99.90
4324;DHT22;2175;51.018;6.994;2022-08-19T11:32:06;27.30;99.90
4324;DHT22;2175;51.018;6.994;2022-08-19T11:34:31;27.40;99.90
4324;DHT22;2175;51.018;6.994;2022-08-19T11:36:57;27.60;99.90
4324;DHT22;2175;51.018;6.994;2022-08-19T11:39:26;27.80;99.90
4324;DHT22;2175;51.018;6.994;2022-08-19T11:41:52;27.70;99.90
4324;DHT22;2175;51.018;6.994;2022-08-19T11:44:18;27.40;99.90
4324;DHT22;2175;51.018;6.994;2022-08-19T11:46:45;27.20;99.90
4324;DHT22;2175;51.018;6.994;2022-08-19T11:49:12;27.30;99.90
4324;DHT22;2175;51.018;6.994;2022-08-19T11:51:40;27.40;99.90
4324;DHT22;2175;51.018;6.994;2022-08-19T11:54:09;27.40;99.90
4324;DHT22;2175;51.018;6.994;2022-08-19T11:56:37;27.50;99.90
4324;DHT22;2175;51.018;6.994;2022-08-19T11:59:03;27.40;99.90
4324;DHT22;2175;51.018;6.994;2022-08-19T12:01:28;27.40;99.90
4324;DHT22;2175;51.018;6.994;2022-08-19T12:03:55;27.40;99.90
4324;DHT22;2175;51.018;6.994;2022-08-19T12:06:26;27.00;99.90
4324;DHT22;2175;51.018;6.994;2022-08-19T12:08:58;27.10;99.90
4324;DHT22;2175;51.018;6.994;2022-08-19T12:11:24;27.10;99.90
4324;DHT22;2175;51.018;6.994;2022-08-19T12:13:50;26.90;99.90
4324;DHT22;2175;51.018;6.994;2022-08-19T12:16:19;26.70;99.90
4324;DHT22;2175;51.018;6.994;2022-08-19T12:18:46;26.50;99.90
4324;DHT22;2175;51.018;6.994;2022-08-19T12:21:24;26.50;99.90
4324;DHT22;2175;51.018;6.994;2022-08-19T12:23:55;26.80;99.90
4324;DHT22;2175;51.018;6.994;2022-08-19T12:26:21;26.90;99.90
4324;DHT22;2175;51.018;6.994;2022-08-19T12:28:47;27.00;99.90
4324;DHT22;2175;51.018;6.994;2022-08-19T12:31:14;27.20;99.90
4324;DHT22;2175;51.018;6.994;2022-08-19T12:33:40;27.20;99.90
4324;DHT22;2175;51.018;6.994;2022-08-19T12:36:08;27.10;99.90
4324;DHT22;2175;51.018;6.994;2022-08-19T12:38:34;27.30;99.90
4324;DHT22;2175;51.018;6.994;2022-08-19T12:41:00;27.40;99.90
4324;DHT22;2175;51.018;6.994;2022-08-19T12:43:28;27.40;99.90
4324;DHT22;2175;51.018;6.994;2022-08-19T12:45:55;27.40;99.90
4324;DHT22;2175;51.018;6.994;2022-08-19T12:48:21;27.60;99.90
4324;DHT22;2175;51.018;6.994;2022-08-19T12:50:46;27.70;99.90
4324;DHT22;2175;51.018;6.994;2022-08-19T12:53:13;27.60;99.90
4324;DHT22;2175;51.018;6.994;2022-08-19T12:55:38;27.50;99.90
4324;DHT22;2175;51.018;6.994;2022-08-19T12:58:04;27.40;99.90
4324;DHT22;2175;51.018;6.994;2022-08-19T13:00:30;27.30;99.90
4324;DHT22;2175;51.018;6.994;2022-08-19T13:02:58;27.40;99.90
4324;DHT22;2175;51.018;6.994;2022-08-19T13:05:26;27.40;99.90
4324;DHT22;2175;51.018;6.994;2022-08-19T13:07:54;27.30;99.90
4324;DHT22;2175;51.018;6.994;2022-08-19T13:10:25;27.30;99.90
4324;DHT22;2175;51.018;6.994;2022-08-19T13:12:52;27.40;99.90
4324;DHT22;2175;51.018;6.994;2022-08-19T13:15:20;27.40;99.90
4324;DHT22;2175;51.018;6.994;2022-08-19T13:17:50;27.30;99.90
4324;DHT22;2175;51.018;6.994;2022-08-19T13:20:18;27.20;99.90
4324;DHT22;2175;51.018;6.994;2022-08-19T13:22:45;27.10;99.90
4324;DHT22;2175;51.018;6.994;2022-08-19T13:25:12;27.10;99.90
4324;DHT22;2175;51.018;6.994;2022-08-19T13:27:38;27.00;99.90
4324;DHT22;2175;51.018;6.994;2022-08-19T13:30:06;27.10;99.90
4324;DHT22;2175;51.018;6.994;2022-08-19T13:32:51;27.20;99.90
4324;DHT22;2175;51.018;6.994;2022-08-19T13:35:35;27.20;99.90
4324;DHT22;2175;51.018;6.994;2022-08-19T13:38:01;27.20;99.90
4324;DHT22;2175;51.018;6.994;2022-08-19T13:40:31;27.30;99.90
4324;DHT22;2175;51.018;6.994;2022-08-19T13:43:00;27.30;99.90
4324;DHT22;2175;51.018;6.994;2022-08-19T13:45:27;27.30;99.90
4324;DHT22;2175;51.018;6.994;2022-08-19T13:47:54;27.30;99.90
4324;DHT22;2175;51.018;6.994;2022-08-19T13:50:25;27.30;99.90
4324;DHT22;2175;51.018;6.994;2022-08-19T13:52:55;27.30;99.90
4324;DHT22;2175;51.018;6.994;2022-08-19T13:55:21;27.30;99.90
4324;DHT22;2175;51.018;6.994;2022-08-19T13:57:59;27.30;99.90
4324;DHT22;2175;51.018;6.994;2022-08-19T14:00:29;27.30;99.90
4324;DHT22;2175;51.018;6.994;2022-08-19T14:02:56;27.40;99.90
4324;DHT22;2175;51.018;6.994;2022-08-19T14:05:23;27.50;99.90
4324;DHT22;2175;51.018;6.994;2022-08-19T14:07:49;27.40;99.90
4324;DHT22;2175;51.018;6.994;2022-08-19T14:10:15;27.30;99.20
4324;DHT22;2175;51.018;6.994;2022-08-19T14:12:41;27.30;99.90
4324;DHT22;2175;51.018;6.994;2022-08-19T14:15:08;27.30;99.90
4324;DHT22;2175;51.018;6.994;2022-08-19T14:17:37;27.30;99.40
4324;DHT22;2175;51.018;6.994;2022-08-19T14:20:05;27.40;99.90
4324;DHT22;2175;51.018;6.994;2022-08-19T14:22:35;27.40;99.90
4324;DHT22;2175;51.018;6.994;2022-08-19T14:25:09;27.30;99.90
4324;DHT22;2175;51.018;6.994;2022-08-19T14:27:36;27.20;99.90
4324;DHT22;2175;51.018;6.994;2022-08-19T14:30:07;27.30;99.90
4324;DHT22;2175;51.018;6.994;2022-08-19T14:32:33;27.40;99.90
4324;DHT22;2175;51.018;6.994;2022-08-19T14:35:00;27.30;99.40
4324;DHT22;2175;51.018;6.994;2022-08-19T14:37:25;27.40;99.50
4324;DHT22;2175;51.018;6.994;2022-08-19T14:39:51;27.30;99.80
4324;DHT22;2175;51.018;6.994;2022-08-19T14:42:17;27.40;99.90
4324;DHT22;2175;51.018;6.994;2022-08-19T14:44:43;27.50;99.30
4324;DHT22;2175;51.018;6.994;2022-08-19T14:47:09;27.50;98.50
4324;DHT22;2175;51.018;6.994;2022-08-19T14:49:35;27.40;97.90
4324;DHT22;2175;51.018;6.994;2022-08-19T14:52:01;27.40;98.30
4324;DHT22;2175;51.018;6.994;2022-08-19T14:54:26;27.40;97.70
4324;DHT22;2175;51.018;6.994;2022-08-19T14:56:52;27.30;97.60
4324;DHT22;2175;51.018;6.994;2022-08-19T14:59:18;27.20;97.90
4324;DHT22;2175;51.018;6.994;2022-08-19T15:01:43;27.20;97.50
4324;DHT22;2175;51.018;6.994;2022-08-19T15:04:09;27.30;98.10
4324;DHT22;2175;51.018;6.994;2022-08-19T15:06:35;27.40;97.70
4324;DHT22;2175;51.018;6.994;2022-08-19T15:09:01;27.40;97.20
4324;DHT22;2175;51.018;6.994;2022-08-19T15:11:28;27.40;96.90
4324;DHT22;2175;51.018;6.994;2022-08-19T15:13:55;27.40;96.40
4324;DHT22;2175;51.018;6.994;2022-08-19T15:16:21;27.30;96.70
4324;DHT22;2175;51.018;6.994;2022-08-19T15:18:51;27.30;97.40
4324;DHT22;2175;51.018;6.994;2022-08-19T15:21:17;27.30;96.00
4324;DHT22;2175;51.018;6.994;2022-08-19T15:23:47;27.40;96.50
4324;DHT22;2175;51.018;6.994;2022-08-19T15:26:18;27.30;96.50
4324;DHT22;2175;51.018;6.994;2022-08-19T15:28:44;27.30;96.00
4324;DHT22;2175;51.018;6.994;2022-08-19T15:31:10;27.30;95.80
4324;DHT22;2175;51.018;6.994;2022-08-19T15:33:36;27.40;96.20
4324;DHT22;2175;51.018;6.994;2022-08-19T15:36:04;27.30;95.10
4324;DHT22;2175;51.018;6.994;2022-08-19T15:38:31;27.30;94.90
4324;DHT22;2175;51.018;6.994;2022-08-19T15:40:59;27.30;95.20
4324;DHT22;2175;51.018;6.994;2022-08-19T15:43:45;27.30;95.30
4324;DHT22;2175;51.018;6.994;2022-08-19T15:46:11;27.40;95.60
4324;DHT22;2175;51.018;6.994;2022-08-19T15:48:37;27.40;95.80
4324;DHT22;2175;51.018;6.994;2022-08-19T15:51:03;27.30;94.90
4324;DHT22;2175;51.018;6.994;2022-08-19T15:53:29;27.30;95.90
4324;DHT22;2175;51.018;6.994;2022-08-19T15:55:54;27.30;96.00
4324;DHT22;2175;51.018;6.994;2022-08-19T15:58:20;27.30;96.10
4324;DHT22;2175;51.018;6.994;2022-08-19T16:01:06;27.30;95.00
4324;DHT22;2175;51.018;6.994;2022-08-19T16:03:52;27.30;95.00
4324;DHT22;2175;51.018;6.994;2022-08-19T16:06:36;27.20;95.20
4324;DHT22;2175;51.018;6.994;2022-08-19T16:09:04;27.20;95.10
4324;DHT22;2175;51.018;6.994;2022-08-19T16:11:33;27.20;96.50
4324;DHT22;2175;51.018;6.994;2022-08-19T16:14:00;27.20;97.10
4324;DHT22;2175;51.018;6.994;2022-08-19T16:16:31;27.00;97.40